Drakesburg, Ohio
Current Conditions -  °F | °C
As of 9:16 AM on Thursday 29 Jan 2015 (Local Time) from KPOV Reporting Station
Moderate Rain Moderate Rain  
Wind Chill: 25°   Ceiling: 5000
Heat Index: 31°   Visibility: 10mi
Dew Point: 13°   Wind: 6mph
Humidity: 47%   Direction: 170°S
Pressure: 29.88"   Gusts: NA
Location:  41.2385°N, 81.0761°W
Report Text: KPOV 291416Z AUTO 17005KT 10SM RA BKN050 OVC070 00/M11 A2988 RMK AO2 T10051106
Loading
Personal Weather Stations






























Interactive Weather Map New forecast layout! Learn more

10-Day Weather Forecast

Advertisements
Track Severe Weather on mobile